createdAt,value
2022-08-26T00:01:45.145Z,94652.84
2022-08-26T00:04:12.597Z,94652.22
2022-08-26T00:06:42.555Z,94654.66
2022-08-26T00:09:15.877Z,94645.69
2022-08-26T00:11:46.486Z,94654.31
2022-08-26T00:14:14.460Z,94662.75
2022-08-26T00:16:48.145Z,94653.91
2022-08-26T00:19:20.900Z,94649.09
2022-08-26T00:21:49.610Z,94646.31
2022-08-26T00:24:19.087Z,94640.56
2022-08-26T00:26:46.230Z,94657.59
2022-08-26T00:29:13.046Z,94650.91
2022-08-26T00:31:40.285Z,94649.31
2022-08-26T00:34:07.570Z,94649.41
2022-08-26T00:36:36.731Z,94645.16
2022-08-26T00:39:04.447Z,94651.56
2022-08-26T00:41:31.091Z,94636.78
2022-08-26T00:43:57.685Z,94638.78
2022-08-26T00:46:29.697Z,94638.78
2022-08-26T00:49:12.225Z,94641.13
2022-08-26T00:51:45.806Z,94643.97
2022-08-26T00:54:13.500Z,94648.69
2022-08-26T00:56:56.077Z,94642.09
2022-08-26T00:59:23.889Z,94626.94
2022-08-26T01:01:51.505Z,94645.94
2022-08-26T01:04:21.700Z,94650.31
2022-08-26T01:06:50.625Z,94649.16
2022-08-26T01:09:19.182Z,94639.84
2022-08-26T01:11:47.544Z,94640.91
2022-08-26T01:14:16.589Z,94642.19
2022-08-26T01:16:46.043Z,94649.63
2022-08-26T01:19:21.716Z,94639.22
2022-08-26T01:21:56.626Z,94644.97
2022-08-26T01:24:26.056Z,94645.41
2022-08-26T01:27:00.581Z,94641.44
2022-08-26T01:29:29.123Z,94639.44
2022-08-26T01:31:57.989Z,94637.94
2022-08-26T01:34:27.268Z,94638.06
2022-08-26T01:37:07.908Z,94632.81
2022-08-26T01:39:40.930Z,94631.63
2022-08-26T01:42:12.404Z,94628.69
2022-08-26T01:44:51.447Z,94619.66
2022-08-26T01:47:20.891Z,94634.41
2022-08-26T01:49:51.455Z,94631.31
2022-08-26T01:52:28.106Z,94633.19
2022-08-26T01:54:56.538Z,94632.81
2022-08-26T01:57:24.799Z,94621.53
2022-08-26T01:59:55.463Z,94625.16
2022-08-26T02:02:24.552Z,94630.03
2022-08-26T02:04:57.757Z,94636.75
2022-08-26T02:07:26.677Z,94630.16
2022-08-26T02:09:54.229Z,94636.44
2022-08-26T02:12:21.208Z,94621.84
2022-08-26T02:14:53.327Z,94623.13
2022-08-26T02:17:24.680Z,94626.94
2022-08-26T02:19:51.377Z,94630.97
2022-08-26T02:22:20.923Z,94627.47
2022-08-26T02:24:59.385Z,94628.00
2022-08-26T02:27:32.920Z,94631.28
2022-08-26T02:30:14.802Z,94615.97
2022-08-26T02:32:44.241Z,94622.84
2022-08-26T02:35:12.730Z,94613.16
2022-08-26T02:37:39.432Z,94626.00
2022-08-26T02:40:11.123Z,94626.97
2022-08-26T02:42:37.825Z,94627.88
2022-08-26T02:45:05.657Z,94632.13
2022-08-26T02:47:34.461Z,94632.59
2022-08-26T02:50:01.884Z,94630.25
2022-08-26T02:52:28.603Z,94640.50
2022-08-26T02:54:55.293Z,94635.72
2022-08-26T02:57:22.103Z,94636.53
2022-08-26T02:59:49.344Z,94633.88
2022-08-26T03:02:17.382Z,94630.66
2022-08-26T03:04:57.918Z,94641.69
2022-08-26T03:07:29.489Z,94647.69
2022-08-26T03:09:57.167Z,94635.13
2022-08-26T03:12:24.285Z,94632.88
2022-08-26T03:14:52.528Z,94633.41
2022-08-26T03:17:19.155Z,94633.88
2022-08-26T03:19:45.853Z,94630.22
2022-08-26T03:22:12.575Z,94624.34
2022-08-26T03:24:41.595Z,94643.28
2022-08-26T03:27:12.876Z,94635.75
2022-08-26T03:29:59.888Z,94639.78
2022-08-26T03:32:27.003Z,94629.31
2022-08-26T03:34:54.353Z,94638.03
2022-08-26T03:37:21.679Z,94639.09
2022-08-26T03:39:49.247Z,94638.78
2022-08-26T03:42:16.134Z,94631.72
2022-08-26T03:44:43.023Z,94628.09
2022-08-26T03:47:10.448Z,94645.91
2022-08-26T03:49:37.346Z,94631.56
2022-08-26T03:52:04.823Z,94636.06
2022-08-26T03:54:32.437Z,94646.13
2022-08-26T03:56:59.170Z,94646.44
2022-08-26T03:59:26.671Z,94635.72
2022-08-26T04:01:54.617Z,94624.56
2022-08-26T04:04:22.740Z,94628.53
2022-08-26T04:06:57.351Z,94632.59
2022-08-26T04:09:24.998Z,94631.53
2022-08-26T04:11:51.721Z,94616.41
2022-08-26T04:14:21.304Z,94621.84
2022-08-26T04:16:48.469Z,94631.84
2022-08-26T04:19:16.657Z,94629.44
2022-08-26T04:21:45.071Z,94622.28
2022-08-26T04:24:13.879Z,94632.41
2022-08-26T04:26:42.689Z,94623.28
2022-08-26T04:29:15.272Z,94627.22
2022-08-26T04:31:42.565Z,94634.19
2022-08-26T04:34:10.909Z,94631.31
2022-08-26T04:36:38.192Z,94623.63
2022-08-26T04:39:05.477Z,94619.06
2022-08-26T04:41:32.978Z,94632.91
2022-08-26T04:43:59.850Z,94630.91
2022-08-26T04:46:26.588Z,94638.38
2022-08-26T04:48:54.901Z,94627.41
2022-08-26T04:51:27.354Z,94631.38
2022-08-26T04:53:59.075Z,94630.91
2022-08-26T04:56:32.890Z,94622.97
2022-08-26T04:59:01.051Z,94626.69
2022-08-26T05:01:31.598Z,94629.06
2022-08-26T05:03:58.973Z,94633.97
2022-08-26T05:06:26.213Z,94637.06
2022-08-26T05:08:54.243Z,94633.03
2022-08-26T05:11:22.088Z,94639.84
2022-08-26T05:13:49.200Z,94631.13
2022-08-26T05:16:16.983Z,94628.81
2022-08-26T05:18:45.016Z,94640.38
2022-08-26T05:21:30.930Z,94641.13
2022-08-26T05:23:57.661Z,94640.72
2022-08-26T05:26:26.630Z,94632.81
2022-08-26T05:28:57.046Z,94645.06
2022-08-26T05:31:27.282Z,94635.16
2022-08-26T05:33:54.706Z,94639.59
2022-08-26T05:36:23.740Z,94640.06
2022-08-26T05:38:54.123Z,94639.75
2022-08-26T05:41:24.993Z,94650.69
2022-08-26T05:43:53.416Z,94648.72
2022-08-26T05:46:20.259Z,94646.47
2022-08-26T05:48:48.353Z,94643.66
2022-08-26T05:51:15.117Z,94644.75
2022-08-26T05:53:43.965Z,94651.97
2022-08-26T05:56:26.114Z,94646.81
2022-08-26T05:58:53.266Z,94643.78
2022-08-26T06:01:24.097Z,94649.31
2022-08-26T06:03:52.543Z,94654.06
2022-08-26T06:06:27.318Z,94661.97
2022-08-26T06:08:57.508Z,94651.56
2022-08-26T06:11:25.514Z,94654.81
2022-08-26T06:14:02.710Z,94647.50
2022-08-26T06:16:30.966Z,94653.84
2022-08-26T06:18:57.705Z,94663.38
2022-08-26T06:21:29.933Z,94670.31
2022-08-26T06:24:27.169Z,94660.28
2022-08-26T06:26:57.213Z,94663.19
2022-08-26T06:29:26.122Z,94674.97
2022-08-26T06:31:53.936Z,94668.22
2022-08-26T06:34:21.083Z,94671.25
2022-08-26T06:36:49.350Z,94676.91
2022-08-26T06:39:19.892Z,94677.09
2022-08-26T06:41:47.540Z,94671.94
2022-08-26T06:44:15.663Z,94673.47
2022-08-26T06:46:44.287Z,94675.38
2022-08-26T06:49:12.435Z,94675.75
2022-08-26T06:51:40.949Z,94682.22
2022-08-26T06:54:08.581Z,94681.63
2022-08-26T06:56:38.967Z,94673.09
2022-08-26T06:59:07.682Z,94671.84
2022-08-26T07:01:38.642Z,94671.88
2022-08-26T07:04:10.845Z,94676.13
2022-08-26T07:06:41.175Z,94671.75
2022-08-26T07:09:10.754Z,94677.88
2022-08-26T07:11:38.739Z,94669.13
2022-08-26T07:14:06.084Z,94671.03
2022-08-26T07:16:33.630Z,94671.13
2022-08-26T07:19:03.613Z,94681.94
2022-08-26T07:21:40.442Z,94685.00
2022-08-26T07:24:07.983Z,94686.75
2022-08-26T07:26:34.728Z,94681.50
2022-08-26T07:29:02.061Z,94683.19
2022-08-26T07:31:39.211Z,94689.88
2022-08-26T07:34:07.690Z,94691.03
2022-08-26T07:36:34.936Z,94686.47
2022-08-26T07:39:01.829Z,94676.81
2022-08-26T07:43:57.075Z,94686.13
2022-08-26T07:46:27.274Z,94681.31
2022-08-26T07:48:58.144Z,94681.13
2022-08-26T07:51:26.050Z,94653.41
2022-08-26T07:53:54.368Z,94682.06
2022-08-26T07:56:23.276Z,94682.34
2022-08-26T07:58:52.171Z,94687.16
2022-08-26T08:01:24.543Z,94691.75
2022-08-26T08:03:54.122Z,94683.38
2022-08-26T08:06:27.277Z,94690.25
2022-08-26T08:08:54.656Z,94687.63
2022-08-26T08:11:21.762Z,94681.16
2022-08-26T08:13:52.361Z,94687.19
2022-08-26T08:16:24.948Z,94674.19
2022-08-26T08:18:53.419Z,94681.47
2022-08-26T08:21:21.628Z,94685.94
2022-08-26T08:23:49.257Z,94683.81
2022-08-26T08:26:16.886Z,94681.47
2022-08-26T08:28:43.978Z,94679.06
2022-08-26T08:31:38.711Z,94688.63
2022-08-26T08:34:07.004Z,94670.91
2022-08-26T08:36:36.032Z,94685.59
2022-08-26T08:39:03.781Z,94678.53
2022-08-26T08:41:48.023Z,94681.47
2022-08-26T08:44:20.498Z,94680.75
2022-08-26T08:46:55.384Z,94675.25
2022-08-26T08:49:23.268Z,94667.53
2022-08-26T08:51:59.136Z,94663.38
2022-08-26T08:54:30.057Z,94666.06
2022-08-26T08:57:08.332Z,94666.72
2022-08-26T08:59:38.213Z,94655.19
2022-08-26T09:02:22.509Z,94663.38
2022-08-26T09:05:08.185Z,94668.63
2022-08-26T09:07:44.360Z,94663.56
2022-08-26T09:10:47.155Z,94663.31
2022-08-26T09:13:25.156Z,94652.69
2022-08-26T09:16:11.062Z,94662.34
2022-08-26T09:19:15.205Z,94649.44
2022-08-26T09:21:45.836Z,94652.16
2022-08-26T09:24:14.784Z,94644.13
2022-08-26T09:26:48.545Z,94645.16
2022-08-26T09:29:34.363Z,94644.88
2022-08-26T09:32:25.003Z,94642.88
2022-08-26T09:35:00.677Z,94651.41
2022-08-26T09:37:43.469Z,94644.63
2022-08-26T09:40:26.931Z,94645.56
2022-08-26T09:43:21.983Z,94650.56
2022-08-26T09:45:59.553Z,94657.59
2022-08-26T09:48:36.091Z,94648.16
2022-08-26T09:51:06.972Z,94653.56
2022-08-26T09:53:50.296Z,94630.72
2022-08-26T09:56:24.046Z,94653.81
2022-08-26T09:58:53.080Z,94635.00
2022-08-26T10:01:37.986Z,94641.28
2022-08-26T10:04:19.851Z,94651.94
2022-08-26T10:07:05.272Z,94640.50
2022-08-26T10:09:39.892Z,94633.84
2022-08-26T10:12:17.385Z,94639.22
2022-08-26T10:14:56.296Z,94638.03
2022-08-26T10:17:36.230Z,94633.09
2022-08-26T10:20:22.566Z,94630.81
2022-08-26T10:22:59.096Z,94632.16
2022-08-26T10:25:32.957Z,94631.53
2022-08-26T10:28:48.522Z,94612.41
2022-08-26T10:31:38.164Z,94637.03
2022-08-26T10:34:05.506Z,94638.44
2022-08-26T10:39:51.858Z,94626.38
2022-08-26T10:42:38.115Z,94634.63
2022-08-26T10:45:22.108Z,94635.72
2022-08-26T10:48:05.367Z,94633.56
2022-08-26T10:50:35.897Z,94638.25
2022-08-26T10:53:17.158Z,94628.47
2022-08-26T10:56:01.979Z,94625.16
2022-08-26T10:58:45.742Z,94613.50
2022-08-26T11:01:41.034Z,94622.06
2022-08-26T11:04:38.538Z,94621.84
2022-08-26T11:07:47.607Z,94612.41
2022-08-26T11:10:21.728Z,94622.88
2022-08-26T11:13:15.774Z,94611.94
2022-08-26T11:15:44.181Z,94593.94
2022-08-26T11:18:32.456Z,94590.34
2022-08-26T11:20:59.364Z,94602.56
2022-08-26T11:23:29.089Z,94600.78
2022-08-26T11:26:02.023Z,94599.22
2022-08-26T11:28:35.874Z,94607.34
2022-08-26T11:31:04.463Z,94593.63
2022-08-26T11:33:46.020Z,94610.16
2022-08-26T11:36:35.288Z,94601.31
2022-08-26T11:39:15.147Z,94591.88
2022-08-26T11:41:47.107Z,94593.44
2022-08-26T11:44:19.814Z,94591.25
2022-08-26T11:46:59.454Z,94574.50
2022-08-26T11:49:28.398Z,94586.16
2022-08-26T11:52:20.966Z,94589.47
2022-08-26T11:55:12.095Z,94581.81
2022-08-26T11:57:49.363Z,94571.56
2022-08-26T12:00:23.640Z,94589.91
2022-08-26T12:02:52.438Z,94573.84
2022-08-26T12:05:30.931Z,94577.13
2022-08-26T12:08:03.192Z,94581.78
2022-08-26T12:10:33.837Z,94564.50
2022-08-26T12:13:02.295Z,94559.72
2022-08-26T12:15:31.615Z,94543.25
2022-08-26T12:18:15.318Z,94560.94
2022-08-26T12:20:54.385Z,94554.78
2022-08-26T12:23:36.735Z,94558.69
2022-08-26T12:26:39.407Z,94558.53
2022-08-26T12:29:12.861Z,94543.78
2022-08-26T12:31:47.847Z,94533.50
2022-08-26T12:34:17.721Z,94541.38
2022-08-26T12:36:52.965Z,94558.19
2022-08-26T12:39:28.788Z,94544.56
2022-08-26T12:41:58.431Z,94542.81
2022-08-26T12:44:54.100Z,94534.47
2022-08-26T12:47:42.771Z,94538.66
2022-08-26T12:50:21.215Z,94542.38
2022-08-26T12:53:01.848Z,94537.34
2022-08-26T12:55:37.679Z,94543.22
2022-08-26T12:58:16.148Z,94542.13
2022-08-26T13:01:10.449Z,94534.06
2022-08-26T13:03:45.421Z,94537.97
2022-08-26T13:06:15.508Z,94545.31
2022-08-26T13:08:55.379Z,94533.00
2022-08-26T13:11:27.936Z,94531.50
2022-08-26T13:14:07.246Z,94522.78
2022-08-26T13:16:34.621Z,94512.44
2022-08-26T13:19:05.129Z,94513.72
2022-08-26T13:21:37.773Z,94500.34
2022-08-26T13:24:14.057Z,94514.59
2022-08-26T13:26:43.226Z,94516.91
2022-08-26T13:29:10.906Z,94510.25
2022-08-26T13:31:39.980Z,94505.94
2022-08-26T13:34:09.471Z,94504.25
2022-08-26T13:36:36.201Z,94501.25
2022-08-26T13:39:07.343Z,94504.69
2022-08-26T13:41:33.972Z,94504.06
2022-08-26T13:44:00.624Z,94494.44
2022-08-26T13:46:28.330Z,94497.97
2022-08-26T13:48:56.371Z,94493.44
2022-08-26T13:51:24.332Z,94509.50
2022-08-26T13:53:51.370Z,94501.75
2022-08-26T13:56:19.302Z,94510.97
2022-08-26T13:58:47.696Z,94506.88
2022-08-26T14:01:17.232Z,94515.50
2022-08-26T14:03:44.024Z,94510.78
2022-08-26T14:06:10.796Z,94520.56
2022-08-26T14:08:38.620Z,94513.66
2022-08-26T14:11:06.067Z,94501.56
2022-08-26T14:13:32.775Z,94505.94
2022-08-26T14:16:01.563Z,94516.34
2022-08-26T14:18:36.359Z,94510.00
2022-08-26T14:21:07.704Z,94501.50
2022-08-26T14:23:34.488Z,94510.38
2022-08-26T14:26:03.765Z,94510.91
2022-08-26T14:28:30.387Z,94500.88
2022-08-26T14:30:58.316Z,94507.66
2022-08-26T14:33:28.628Z,94495.25
2022-08-26T14:36:19.291Z,94507.50
2022-08-26T14:38:46.741Z,94516.59
2022-08-26T14:41:16.493Z,94510.84
2022-08-26T14:43:50.055Z,94503.91
2022-08-26T14:46:17.944Z,94519.41
2022-08-26T14:48:44.828Z,94513.66
2022-08-26T14:51:11.769Z,94518.84
2022-08-26T14:53:57.228Z,94501.53
2022-08-26T14:56:24.543Z,94511.72
2022-08-26T14:58:51.150Z,94509.22
2022-08-26T15:01:17.854Z,94504.91
2022-08-26T15:03:44.951Z,94503.13
2022-08-26T15:06:13.887Z,94503.41
2022-08-26T15:08:40.492Z,94496.97
2022-08-26T15:11:07.146Z,94502.47
2022-08-26T15:13:33.857Z,94509.38
2022-08-26T15:16:00.533Z,94509.94
2022-08-26T15:18:27.279Z,94516.28
2022-08-26T15:20:53.913Z,94509.06
2022-08-26T15:23:20.505Z,94506.69
2022-08-26T15:25:48.469Z,94501.06
2022-08-26T15:28:15.193Z,94510.88
2022-08-26T15:30:43.145Z,94508.19
2022-08-26T15:33:15.352Z,94511.41
2022-08-26T15:35:43.039Z,94508.25
2022-08-26T15:38:10.715Z,94507.94
2022-08-26T15:40:37.769Z,94513.72
2022-08-26T15:43:18.440Z,94516.38
2022-08-26T15:45:51.790Z,94515.31
2022-08-26T15:48:19.064Z,94504.13
2022-08-26T15:50:56.830Z,94505.59
2022-08-26T15:53:24.563Z,94508.09
2022-08-26T15:55:54.746Z,94503.66
2022-08-26T15:58:24.973Z,94508.38
2022-08-26T16:00:54.875Z,94504.69
2022-08-26T16:03:21.691Z,94500.56
2022-08-26T16:05:48.535Z,94505.09
2022-08-26T16:08:15.598Z,94511.28
2022-08-26T16:10:49.753Z,94502.44
2022-08-26T16:13:18.117Z,94506.88
2022-08-26T16:15:45.047Z,94500.81
2022-08-26T16:18:13.097Z,94505.41
2022-08-26T16:21:12.391Z,94496.13
2022-08-26T16:23:37.400Z,94502.03
2022-08-26T16:26:11.972Z,94469.41
2022-08-26T16:28:38.775Z,94509.09
2022-08-26T16:31:06.922Z,94502.31
2022-08-26T16:33:33.676Z,94494.47
2022-08-26T16:36:00.319Z,94494.28
2022-08-26T16:38:27.067Z,94500.31
2022-08-26T16:40:53.715Z,94502.78
2022-08-26T16:43:20.362Z,94497.72
2022-08-26T16:45:46.976Z,94499.34
2022-08-26T16:48:13.592Z,94508.34
2022-08-26T16:50:41.909Z,94506.94
2022-08-26T16:53:15.976Z,94503.28
2022-08-26T16:55:47.121Z,94502.84
2022-08-26T16:58:14.707Z,94509.09
2022-08-26T17:00:41.368Z,94500.56
2022-08-26T17:03:08.196Z,94498.78
2022-08-26T17:05:36.235Z,94491.94
2022-08-26T17:08:03.956Z,94507.09
2022-08-26T17:10:31.414Z,94508.81
2022-08-26T17:12:58.543Z,94503.03
2022-08-26T17:15:25.547Z,94513.78
2022-08-26T17:17:53.486Z,94498.03
2022-08-26T17:20:22.406Z,94509.41
2022-08-26T17:22:50.841Z,94512.94
2022-08-26T17:25:31.653Z,94494.19
2022-08-26T17:27:58.892Z,94508.66
2022-08-26T17:30:25.999Z,94519.06
2022-08-26T17:32:54.130Z,94520.78
2022-08-26T17:35:21.448Z,94522.47
2022-08-26T17:37:48.289Z,94518.63
2022-08-26T17:40:18.080Z,94518.44
2022-08-26T17:42:45.833Z,94518.69
2022-08-26T17:45:13.184Z,94516.81
2022-08-26T17:47:41.096Z,94523.16
2022-08-26T17:50:10.457Z,94530.44
2022-08-26T17:52:37.791Z,94534.88
2022-08-26T17:55:06.608Z,94528.41
2022-08-26T17:57:35.999Z,94523.97
2022-08-26T18:00:12.732Z,94532.50
2022-08-26T18:02:39.681Z,94532.88
2022-08-26T18:05:07.262Z,94529.53
2022-08-26T18:07:37.741Z,94531.59
2022-08-26T18:10:13.484Z,94537.50
2022-08-26T18:12:41.503Z,94547.38
2022-08-26T18:15:10.054Z,94544.94
2022-08-26T18:17:38.471Z,94541.81
2022-08-26T18:20:08.127Z,94552.75
2022-08-26T18:22:34.722Z,94546.06
2022-08-26T18:25:01.318Z,94532.16
2022-08-26T18:27:27.898Z,94541.63
2022-08-26T18:29:54.634Z,94549.59
2022-08-26T18:32:21.318Z,94550.88
2022-08-26T18:34:48.445Z,94542.75
2022-08-26T18:37:15.384Z,94552.56
2022-08-26T18:39:42.029Z,94552.00
2022-08-26T18:42:09.145Z,94561.66
2022-08-26T18:44:36.264Z,94569.25
2022-08-26T18:47:02.997Z,94570.75
2022-08-26T18:49:29.615Z,94566.81
2022-08-26T18:51:56.368Z,94569.59
2022-08-26T18:54:23.017Z,94571.09
2022-08-26T18:56:49.725Z,94573.47
2022-08-26T18:59:16.854Z,94575.16
2022-08-26T19:01:43.660Z,94572.88
2022-08-26T19:04:15.729Z,94573.03
2022-08-26T19:06:42.875Z,94575.22
2022-08-26T19:09:11.893Z,94583.94
2022-08-26T19:11:42.774Z,94581.88
2022-08-26T19:14:13.612Z,94579.94
2022-08-26T19:16:42.932Z,94587.72
2022-08-26T19:19:09.744Z,94585.16
2022-08-26T19:21:37.623Z,94575.78
2022-08-26T19:24:08.671Z,94574.59
2022-08-26T19:26:36.597Z,94576.19
2022-08-26T19:29:03.417Z,94577.56
2022-08-26T19:31:30.149Z,94583.03
2022-08-26T19:33:58.057Z,94580.53
2022-08-26T19:36:25.851Z,94579.56
2022-08-26T19:38:53.856Z,94585.59
2022-08-26T19:41:36.565Z,94588.38
2022-08-26T19:44:11.084Z,94592.56
2022-08-26T19:49:09.975Z,94584.91
2022-08-26T19:51:36.724Z,94590.16
2022-08-26T19:54:04.356Z,94584.81
2022-08-26T19:56:31.712Z,94588.56
2022-08-26T19:58:58.495Z,94589.22
2022-08-26T20:01:25.875Z,94575.53
2022-08-26T20:03:53.021Z,94589.16
2022-08-26T20:06:20.200Z,94586.16
2022-08-26T20:08:47.719Z,94587.66
2022-08-26T20:11:18.708Z,94581.81
2022-08-26T20:13:47.023Z,94589.38
2022-08-26T20:16:14.855Z,94577.66
2022-08-26T20:19:01.670Z,94588.59
2022-08-26T20:21:30.025Z,94590.03
2022-08-26T20:24:06.183Z,94583.22
2022-08-26T20:26:35.301Z,94587.56
2022-08-26T20:29:02.593Z,94593.22
2022-08-26T20:31:29.721Z,94587.25
2022-08-26T20:33:57.295Z,94590.34
2022-08-26T20:36:26.811Z,94584.50
2022-08-26T20:38:54.567Z,94591.94
2022-08-26T20:41:21.314Z,94570.47
2022-08-26T20:43:47.926Z,94595.34
2022-08-26T20:46:18.263Z,94587.19
2022-08-26T20:48:47.639Z,94589.00
2022-08-26T20:51:15.005Z,94580.56
2022-08-26T20:53:41.732Z,94583.66
2022-08-26T20:56:09.941Z,94587.72
2022-08-26T20:58:37.786Z,94580.16
2022-08-26T21:01:07.976Z,94598.97
2022-08-26T21:03:36.811Z,94583.19
2022-08-26T21:06:03.961Z,94595.09
2022-08-26T21:08:33.370Z,94592.50
2022-08-26T21:11:00.964Z,94590.09
2022-08-26T21:13:35.775Z,94590.09
2022-08-26T21:16:11.121Z,94596.59
2022-08-26T21:18:38.868Z,94600.06
2022-08-26T21:21:07.452Z,94605.25
2022-08-26T21:23:34.812Z,94608.72
2022-08-26T21:26:03.198Z,94596.97
2022-08-26T21:28:29.859Z,94603.19
2022-08-26T21:30:56.833Z,94614.00
2022-08-26T21:33:23.532Z,94609.63
2022-08-26T21:35:53.764Z,94607.03
2022-08-26T21:38:21.124Z,94610.75
2022-08-26T21:41:02.737Z,94607.03
2022-08-26T21:43:35.160Z,94602.94
2022-08-26T21:46:11.582Z,94613.25
2022-08-26T21:48:40.326Z,94583.50
2022-08-26T21:51:07.438Z,94617.56
2022-08-26T21:53:34.617Z,94617.56
2022-08-26T21:56:11.553Z,94615.34
2022-08-26T21:58:38.682Z,94607.75
2022-08-26T22:01:10.425Z,94620.72
2022-08-26T22:03:46.882Z,94619.53
2022-08-26T22:06:19.287Z,94617.56
2022-08-26T22:08:46.079Z,94614.81
2022-08-26T22:11:13.509Z,94605.34
2022-08-26T22:13:42.116Z,94609.59
2022-08-26T22:16:09.629Z,94611.53
2022-08-26T22:18:36.954Z,94616.78
2022-08-26T22:21:09.723Z,94611.91
2022-08-26T22:23:37.825Z,94627.72
2022-08-26T22:26:06.263Z,94624.16
2022-08-26T22:28:33.475Z,94627.88
2022-08-26T22:31:00.502Z,94623.09
2022-08-26T22:33:27.636Z,94621.09
2022-08-26T22:35:55.278Z,94614.00
2022-08-26T22:38:23.969Z,94613.47
2022-08-26T22:40:56.112Z,94615.78
2022-08-26T22:43:24.774Z,94612.44
2022-08-26T22:45:53.171Z,94621.72
2022-08-26T22:48:22.523Z,94623.84
2022-08-26T22:50:50.473Z,94631.16
2022-08-26T22:53:17.859Z,94633.75
2022-08-26T22:55:45.047Z,94622.56
2022-08-26T22:58:15.038Z,94621.06
2022-08-26T23:00:43.408Z,94621.72
2022-08-26T23:03:10.951Z,94625.28
2022-08-26T23:05:39.669Z,94621.56
2022-08-26T23:08:06.768Z,94634.47
2022-08-26T23:10:33.433Z,94618.97
2022-08-26T23:13:00.153Z,94625.06
2022-08-26T23:15:27.030Z,94625.34
2022-08-26T23:17:58.635Z,94622.94
2022-08-26T23:20:26.334Z,94621.69
2022-08-26T23:22:53.569Z,94584.78
2022-08-26T23:25:21.008Z,94612.28
2022-08-26T23:27:48.029Z,94597.78
2022-08-26T23:30:18.975Z,94616.31
2022-08-26T23:32:45.672Z,94616.09
2022-08-26T23:35:14.191Z,94619.38
2022-08-26T23:37:44.202Z,94623.66
2022-08-26T23:40:18.066Z,94629.91
2022-08-26T23:42:45.883Z,94629.25
2022-08-26T23:45:13.613Z,94626.53
2022-08-26T23:47:41.251Z,94621.06
2022-08-26T23:50:08.621Z,94627.03
2022-08-26T23:52:53.878Z,94620.59
2022-08-26T23:55:20.636Z,94618.56
2022-08-26T23:57:47.381Z,94624.31
